sensor_id;sensor_type;location;lat;lon;timestamp;pressure;altitude;pressure_sealevel;temperature;humidity
57791;BME280;43621;51.798;21.588;2023-01-16T00:03:32;98908.51;;;5.27;76.75
57791;BME280;43621;51.798;21.588;2023-01-16T00:07:34;98902.59;;;5.28;76.82
57791;BME280;43621;51.798;21.588;2023-01-16T00:11:36;98903.30;;;5.29;76.89
57791;BME280;43621;51.798;21.588;2023-01-16T00:15:43;98896.09;;;5.31;76.86
57791;BME280;43621;51.798;21.588;2023-01-16T00:19:46;98893.05;;;5.28;76.93
57791;BME280;43621;51.798;21.588;2023-01-16T00:23:47;98895.89;;;5.21;76.91
57791;BME280;43621;51.798;21.588;2023-01-16T00:27:49;98888.00;;;5.12;76.79
57791;BME280;43621;51.798;21.588;2023-01-16T00:31:51;98891.48;;;5.04;76.90
57791;BME280;43621;51.798;21.588;2023-01-16T00:35:53;98892.00;;;4.96;76.86
57791;BME280;43621;51.798;21.588;2023-01-16T00:39:55;98897.06;;;4.91;76.79
57791;BME280;43621;51.798;21.588;2023-01-16T00:43:57;98904.02;;;4.89;76.94
57791;BME280;43621;51.798;21.588;2023-01-16T00:48:00;98905.54;;;4.89;77.13
57791;BME280;43621;51.798;21.588;2023-01-16T00:52:03;98906.36;;;4.90;77.21
57791;BME280;43621;51.798;21.588;2023-01-16T00:56:06;98904.18;;;4.91;77.26
57791;BME280;43621;51.798;21.588;2023-01-16T01:00:08;98897.83;;;4.94;77.15
57791;BME280;43621;51.798;21.588;2023-01-16T01:04:10;98903.44;;;4.96;77.09
57791;BME280;43621;51.798;21.588;2023-01-16T01:08:14;98909.80;;;4.96;77.09
57791;BME280;43621;51.798;21.588;2023-01-16T01:12:16;98916.41;;;4.96;77.24
57791;BME280;43621;51.798;21.588;2023-01-16T01:16:17;98915.41;;;4.91;77.17
57791;BME280;43621;51.798;21.588;2023-01-16T01:20:19;98913.77;;;4.80;77.10
57791;BME280;43621;51.798;21.588;2023-01-16T01:24:21;98907.70;;;4.70;77.24
57791;BME280;43621;51.798;21.588;2023-01-16T01:28:23;98899.58;;;4.62;77.22
57791;BME280;43621;51.798;21.588;2023-01-16T01:32:25;98898.15;;;4.56;77.17
57791;BME280;43621;51.798;21.588;2023-01-16T01:36:27;98901.52;;;4.53;77.23
57791;BME280;43621;51.798;21.588;2023-01-16T01:40:29;98902.67;;;4.48;77.21
57791;BME280;43621;51.798;21.588;2023-01-16T01:44:54;98898.21;;;4.45;77.32
57791;BME280;43621;51.798;21.588;2023-01-16T01:49:07;98894.56;;;4.43;77.36
57791;BME280;43621;51.798;21.588;2023-01-16T01:53:22;98893.65;;;4.40;77.25
57791;BME280;43621;51.798;21.588;2023-01-16T01:57:33;98891.38;;;4.38;77.34
57791;BME280;43621;51.798;21.588;2023-01-16T02:01:37;98894.30;;;4.36;77.41
57791;BME280;43621;51.798;21.588;2023-01-16T02:05:42;98886.59;;;4.31;77.51
57791;BME280;43621;51.798;21.588;2023-01-16T02:09:46;98884.54;;;4.23;77.48
57791;BME280;43621;51.798;21.588;2023-01-16T02:13:48;98881.33;;;4.11;77.35
57791;BME280;43621;51.798;21.588;2023-01-16T02:17:50;98879.34;;;4.02;77.28
57791;BME280;43621;51.798;21.588;2023-01-16T02:35:35;98870.90;;;3.82;77.33
57791;BME280;43621;51.798;21.588;2023-01-16T02:48:31;98866.52;;;3.73;77.53
57791;BME280;43621;51.798;21.588;2023-01-16T02:52:48;98866.08;;;3.63;77.60
57791;BME280;43621;51.798;21.588;2023-01-16T02:57:04;98863.50;;;3.54;77.68
57791;BME280;43621;51.798;21.588;2023-01-16T03:01:09;98861.91;;;3.48;77.73
57791;BME280;43621;51.798;21.588;2023-01-16T03:05:12;98854.33;;;3.46;77.75
57791;BME280;43621;51.798;21.588;2023-01-16T03:18:14;98849.64;;;3.42;77.62
57791;BME280;43621;51.798;21.588;2023-01-16T03:22:38;98847.48;;;3.39;77.52
57791;BME280;43621;51.798;21.588;2023-01-16T03:26:48;98852.56;;;3.34;77.47
57791;BME280;43621;51.798;21.588;2023-01-16T03:35:10;98854.38;;;3.20;77.42
57791;BME280;43621;51.798;21.588;2023-01-16T03:39:13;98853.71;;;3.11;77.60
57791;BME280;43621;51.798;21.588;2023-01-16T03:47:35;98846.20;;;2.93;77.85
57791;BME280;43621;51.798;21.588;2023-01-16T03:51:54;98848.55;;;2.87;77.82
57791;BME280;43621;51.798;21.588;2023-01-16T03:56:15;98853.27;;;2.86;77.85
57791;BME280;43621;51.798;21.588;2023-01-16T04:00:19;98855.58;;;2.85;77.81
57791;BME280;43621;51.798;21.588;2023-01-16T04:04:27;98854.54;;;2.83;77.68
57791;BME280;43621;51.798;21.588;2023-01-16T04:08:35;98852.38;;;2.82;77.75
57791;BME280;43621;51.798;21.588;2023-01-16T04:12:46;98850.59;;;2.80;77.86
57791;BME280;43621;51.798;21.588;2023-01-16T04:16:51;98853.71;;;2.80;77.82
57791;BME280;43621;51.798;21.588;2023-01-16T04:20:53;98852.35;;;2.80;77.89
57791;BME280;43621;51.798;21.588;2023-01-16T04:24:57;98853.34;;;2.76;78.05
57791;BME280;43621;51.798;21.588;2023-01-16T04:28:59;98853.65;;;2.72;78.00
57791;BME280;43621;51.798;21.588;2023-01-16T04:33:03;98849.59;;;2.64;78.08
57791;BME280;43621;51.798;21.588;2023-01-16T04:37:05;98857.62;;;2.56;78.19
57791;BME280;43621;51.798;21.588;2023-01-16T04:41:07;98854.98;;;2.50;78.07
57791;BME280;43621;51.798;21.588;2023-01-16T04:45:10;98853.90;;;2.46;78.04
57791;BME280;43621;51.798;21.588;2023-01-16T04:49:11;98852.89;;;2.46;78.02
57791;BME280;43621;51.798;21.588;2023-01-16T04:53:13;98852.16;;;2.46;78.03
57791;BME280;43621;51.798;21.588;2023-01-16T04:57:15;98848.36;;;2.49;78.07
57791;BME280;43621;51.798;21.588;2023-01-16T05:01:17;98852.45;;;2.54;78.18
57791;BME280;43621;51.798;21.588;2023-01-16T05:05:20;98850.38;;;2.56;78.08
57791;BME280;43621;51.798;21.588;2023-01-16T05:09:22;98848.54;;;2.53;78.04
57791;BME280;43621;51.798;21.588;2023-01-16T05:13:24;98847.09;;;2.50;78.22
57791;BME280;43621;51.798;21.588;2023-01-16T05:17:25;98842.63;;;2.45;78.30
57791;BME280;43621;51.798;21.588;2023-01-16T05:21:28;98841.14;;;2.37;78.35
57791;BME280;43621;51.798;21.588;2023-01-16T05:25:29;98839.38;;;2.31;78.25
57791;BME280;43621;51.798;21.588;2023-01-16T05:29:31;98844.02;;;2.29;78.16
57791;BME280;43621;51.798;21.588;2023-01-16T05:33:33;98841.55;;;2.30;78.23
57791;BME280;43621;51.798;21.588;2023-01-16T05:37:35;98836.35;;;2.30;78.17
57791;BME280;43621;51.798;21.588;2023-01-16T05:41:37;98835.41;;;2.31;78.08
57791;BME280;43621;51.798;21.588;2023-01-16T05:45:39;98825.92;;;2.34;78.18
57791;BME280;43621;51.798;21.588;2023-01-16T05:49:41;98824.09;;;2.33;78.10
57791;BME280;43621;51.798;21.588;2023-01-16T05:53:43;98825.66;;;2.28;78.03
57791;BME280;43621;51.798;21.588;2023-01-16T05:57:44;98826.27;;;2.20;78.08
57791;BME280;43621;51.798;21.588;2023-01-16T06:01:46;98828.27;;;2.12;78.22
57791;BME280;43621;51.798;21.588;2023-01-16T06:05:48;98823.73;;;2.03;78.18
57791;BME280;43621;51.798;21.588;2023-01-16T06:09:50;98821.65;;;1.99;78.13
57791;BME280;43621;51.798;21.588;2023-01-16T06:13:52;98821.20;;;1.98;78.05
57791;BME280;43621;51.798;21.588;2023-01-16T06:17:53;98822.93;;;1.96;78.10
57791;BME280;43621;51.798;21.588;2023-01-16T06:21:56;98823.12;;;1.91;77.85
57791;BME280;43621;51.798;21.588;2023-01-16T06:25:58;98821.38;;;1.80;77.50
57791;BME280;43621;51.798;21.588;2023-01-16T06:30:00;98818.48;;;1.70;77.54
57791;BME280;43621;51.798;21.588;2023-01-16T06:34:02;98817.73;;;1.66;77.91
57791;BME280;43621;51.798;21.588;2023-01-16T06:38:05;98814.65;;;1.66;78.08
57791;BME280;43621;51.798;21.588;2023-01-16T06:42:06;98811.34;;;1.65;78.20
57791;BME280;43621;51.798;21.588;2023-01-16T06:46:08;98815.14;;;1.67;78.25
57791;BME280;43621;51.798;21.588;2023-01-16T06:50:10;98814.44;;;1.74;78.23
57791;BME280;43621;51.798;21.588;2023-01-16T06:54:12;98812.09;;;1.84;78.37
57791;BME280;43621;51.798;21.588;2023-01-16T06:58:13;98816.13;;;1.97;78.22
57791;BME280;43621;51.798;21.588;2023-01-16T07:02:15;98813.78;;;2.10;78.19
57791;BME280;43621;51.798;21.588;2023-01-16T07:06:17;98809.08;;;2.24;78.08
57791;BME280;43621;51.798;21.588;2023-01-16T07:10:19;98809.63;;;2.42;78.13
57791;BME280;43621;51.798;21.588;2023-01-16T07:14:21;98812.84;;;2.60;78.16
57791;BME280;43621;51.798;21.588;2023-01-16T07:18:42;98811.58;;;2.81;78.18
57791;BME280;43621;51.798;21.588;2023-01-16T07:23:14;98814.83;;;3.03;78.17
57791;BME280;43621;51.798;21.588;2023-01-16T07:27:17;98808.63;;;3.25;77.97
57791;BME280;43621;51.798;21.588;2023-01-16T07:31:19;98805.02;;;3.42;77.68
57791;BME280;43621;51.798;21.588;2023-01-16T07:35:21;98800.27;;;3.66;77.61
57791;BME280;43621;51.798;21.588;2023-01-16T07:39:23;98798.13;;;4.00;77.37
57791;BME280;43621;51.798;21.588;2023-01-16T07:43:25;98796.98;;;4.71;77.48
57791;BME280;43621;51.798;21.588;2023-01-16T07:47:27;98797.91;;;5.33;77.05
57791;BME280;43621;51.798;21.588;2023-01-16T07:51:28;98784.83;;;5.73;76.48
57791;BME280;43621;51.798;21.588;2023-01-16T07:55:30;98770.77;;;6.11;76.09
57791;BME280;43621;51.798;21.588;2023-01-16T07:59:32;98769.65;;;6.35;75.74
57791;BME280;43621;51.798;21.588;2023-01-16T08:03:34;98772.36;;;6.41;75.22
57791;BME280;43621;51.798;21.588;2023-01-16T08:07:36;98773.79;;;6.63;74.90
57791;BME280;43621;51.798;21.588;2023-01-16T08:11:38;98774.92;;;6.85;74.39
57791;BME280;43621;51.798;21.588;2023-01-16T08:15:41;98778.80;;;6.85;73.50
57791;BME280;43621;51.798;21.588;2023-01-16T08:19:42;98783.69;;;6.71;73.03
57791;BME280;43621;51.798;21.588;2023-01-16T08:23:44;98777.33;;;6.84;72.80
57791;BME280;43621;51.798;21.588;2023-01-16T08:27:47;98765.70;;;7.41;73.16
57791;BME280;43621;51.798;21.588;2023-01-16T08:31:49;98761.02;;;7.99;72.70
57791;BME280;43621;51.798;21.588;2023-01-16T08:35:50;98757.30;;;8.32;71.92
57791;BME280;43621;51.798;21.588;2023-01-16T08:39:52;98753.14;;;8.13;70.91
57791;BME280;43621;51.798;21.588;2023-01-16T08:43:54;98754.42;;;7.62;69.87
57791;BME280;43621;51.798;21.588;2023-01-16T08:48:20;98749.27;;;7.30;70.47
57791;BME280;43621;51.798;21.588;2023-01-16T08:52:43;98754.65;;;6.99;69.97
57791;BME280;43621;51.798;21.588;2023-01-16T08:56:45;98761.42;;;6.57;69.76
57791;BME280;43621;51.798;21.588;2023-01-16T09:00:48;98766.52;;;6.20;69.81
57791;BME280;43621;51.798;21.588;2023-01-16T09:04:50;98768.06;;;5.93;69.65
57791;BME280;43621;51.798;21.588;2023-01-16T09:08:52;98771.91;;;5.70;69.86
57791;BME280;43621;51.798;21.588;2023-01-16T09:12:53;98783.94;;;5.45;69.99
57791;BME280;43621;51.798;21.588;2023-01-16T09:17:13;98783.98;;;4.99;69.72
57791;BME280;43621;51.798;21.588;2023-01-16T09:21:16;98778.58;;;4.48;70.07
57791;BME280;43621;51.798;21.588;2023-01-16T09:25:20;98770.27;;;4.11;70.57
57791;BME280;43621;51.798;21.588;2023-01-16T09:29:21;98764.92;;;3.84;71.06
57791;BME280;43621;51.798;21.588;2023-01-16T09:33:23;98763.20;;;3.68;71.55
57791;BME280;43621;51.798;21.588;2023-01-16T09:37:25;98760.11;;;3.62;71.89
57791;BME280;43621;51.798;21.588;2023-01-16T09:41:29;98760.04;;;3.56;72.23
57791;BME280;43621;51.798;21.588;2023-01-16T09:45:55;98747.71;;;3.44;72.59
57791;BME280;43621;51.798;21.588;2023-01-16T09:54:10;98722.74;;;3.52;73.12
57791;BME280;43621;51.798;21.588;2023-01-16T09:58:36;98711.85;;;3.67;73.50
57791;BME280;43621;51.798;21.588;2023-01-16T10:02:40;98704.90;;;3.86;73.66
57791;BME280;43621;51.798;21.588;2023-01-16T10:06:51;98697.85;;;4.00;73.58
57791;BME280;43621;51.798;21.588;2023-01-16T10:11:10;98693.29;;;4.19;73.46
57791;BME280;43621;51.798;21.588;2023-01-16T10:19:29;98692.48;;;4.64;73.39
57791;BME280;43621;51.798;21.588;2023-01-16T10:28:26;98675.07;;;4.65;73.14
57791;BME280;43621;51.798;21.588;2023-01-16T10:32:42;98668.83;;;4.81;73.43
57791;BME280;43621;51.798;21.588;2023-01-16T10:36:50;98661.70;;;5.09;73.54
57791;BME280;43621;51.798;21.588;2023-01-16T10:40:54;98656.60;;;5.29;73.65
57791;BME280;43621;51.798;21.588;2023-01-16T10:49:21;98640.56;;;5.41;73.09
57791;BME280;43621;51.798;21.588;2023-01-16T10:53:30;98632.18;;;5.40;73.21
57791;BME280;43621;51.798;21.588;2023-01-16T10:57:34;98615.95;;;5.38;73.22
57791;BME280;43621;51.798;21.588;2023-01-16T11:01:37;98599.83;;;5.46;73.40
57791;BME280;43621;51.798;21.588;2023-01-16T11:05:41;98593.38;;;5.51;73.18
57791;BME280;43621;51.798;21.588;2023-01-16T11:09:44;98590.48;;;5.48;73.22
57791;BME280;43621;51.798;21.588;2023-01-16T11:13:49;98580.81;;;5.48;73.36
57791;BME280;43621;51.798;21.588;2023-01-16T11:18:29;98569.21;;;5.52;73.45
57791;BME280;43621;51.798;21.588;2023-01-16T11:22:37;98557.55;;;5.54;73.45
57791;BME280;43621;51.798;21.588;2023-01-16T11:26:46;98542.15;;;5.54;73.47
57791;BME280;43621;51.798;21.588;2023-01-16T11:30:55;98536.98;;;5.48;73.45
57791;BME280;43621;51.798;21.588;2023-01-16T11:34:58;98531.98;;;5.46;73.60
57791;BME280;43621;51.798;21.588;2023-01-16T11:39:00;98522.11;;;5.42;73.56
57791;BME280;43621;51.798;21.588;2023-01-16T11:43:15;98514.11;;;5.41;73.74
57791;BME280;43621;51.798;21.588;2023-01-16T11:47:43;98508.55;;;5.32;73.89
57791;BME280;43621;51.798;21.588;2023-01-16T11:51:51;98508.42;;;5.30;73.95
57791;BME280;43621;51.798;21.588;2023-01-16T12:00:40;98498.61;;;5.14;74.02
57791;BME280;43621;51.798;21.588;2023-01-16T12:26:23;98482.81;;;5.22;74.58
57791;BME280;43621;51.798;21.588;2023-01-16T12:39:17;98473.38;;;5.16;74.40
57791;BME280;43621;51.798;21.588;2023-01-16T12:43:43;98479.91;;;5.12;74.35
57791;BME280;43621;51.798;21.588;2023-01-16T12:56:41;98467.22;;;4.98;74.54
57791;BME280;43621;51.798;21.588;2023-01-16T13:05:19;98449.20;;;4.90;74.61
57791;BME280;43621;51.798;21.588;2023-01-16T13:13:50;98436.20;;;4.71;75.04
57791;BME280;43621;51.798;21.588;2023-01-16T13:17:58;98431.66;;;4.64;75.13
57791;BME280;43621;51.798;21.588;2023-01-16T13:26:18;98413.49;;;4.55;75.11
57791;BME280;43621;51.798;21.588;2023-01-16T13:30:22;98405.96;;;4.54;75.10
57791;BME280;43621;51.798;21.588;2023-01-16T13:34:28;98399.17;;;4.43;75.09
57791;BME280;43621;51.798;21.588;2023-01-16T13:43:04;98394.02;;;4.28;75.27
57791;BME280;43621;51.798;21.588;2023-01-16T13:47:28;98390.64;;;4.28;75.32
57791;BME280;43621;51.798;21.588;2023-01-16T13:51:40;98379.95;;;4.24;75.33
57791;BME280;43621;51.798;21.588;2023-01-16T13:55:43;98372.57;;;4.19;75.48
57791;BME280;43621;51.798;21.588;2023-01-16T13:59:56;98370.91;;;4.18;75.68
57791;BME280;43621;51.798;21.588;2023-01-16T14:08:28;98361.68;;;4.10;75.90
57791;BME280;43621;51.798;21.588;2023-01-16T14:17:27;98345.65;;;3.88;76.06
57791;BME280;43621;51.798;21.588;2023-01-16T14:25:38;98333.12;;;3.78;76.69
57791;BME280;43621;51.798;21.588;2023-01-16T14:33:53;98320.16;;;3.65;77.03
57791;BME280;43621;51.798;21.588;2023-01-16T14:38:02;98315.62;;;3.62;76.91
57791;BME280;43621;51.798;21.588;2023-01-16T14:42:18;98316.10;;;3.60;77.16
57791;BME280;43621;51.798;21.588;2023-01-16T14:46:53;98314.52;;;3.62;77.15
57791;BME280;43621;51.798;21.588;2023-01-16T14:51:18;98312.32;;;3.62;77.26
57791;BME280;43621;51.798;21.588;2023-01-16T15:00:16;98304.39;;;3.62;77.42
57791;BME280;43621;51.798;21.588;2023-01-16T15:04:24;98300.05;;;3.62;77.56
57791;BME280;43621;51.798;21.588;2023-01-16T15:08:33;98293.20;;;3.60;77.84
57791;BME280;43621;51.798;21.588;2023-01-16T15:12:40;98284.89;;;3.58;78.02
57791;BME280;43621;51.798;21.588;2023-01-16T15:16:42;98277.86;;;3.59;77.92
57791;BME280;43621;51.798;21.588;2023-01-16T15:21:11;98276.11;;;3.62;77.96
57791;BME280;43621;51.798;21.588;2023-01-16T15:38:14;98258.80;;;3.68;78.11
57791;BME280;43621;51.798;21.588;2023-01-16T15:42:24;98247.71;;;3.68;78.38
57791;BME280;43621;51.798;21.588;2023-01-16T15:46:58;98239.55;;;3.65;78.32
57791;BME280;43621;51.798;21.588;2023-01-16T15:51:06;98236.47;;;3.65;78.37
57791;BME280;43621;51.798;21.588;2023-01-16T15:55:30;98232.33;;;3.67;78.40
57791;BME280;43621;51.798;21.588;2023-01-16T15:59:37;98231.47;;;3.70;78.44
57791;BME280;43621;51.798;21.588;2023-01-16T16:03:46;98231.14;;;3.70;78.61
57791;BME280;43621;51.798;21.588;2023-01-16T16:07:50;98234.77;;;3.68;78.46
57791;BME280;43621;51.798;21.588;2023-01-16T16:11:53;98234.88;;;3.71;78.43
57791;BME280;43621;51.798;21.588;2023-01-16T16:15:59;98229.77;;;3.72;78.55
57791;BME280;43621;51.798;21.588;2023-01-16T16:20:40;98225.14;;;3.75;78.42
57791;BME280;43621;51.798;21.588;2023-01-16T16:24:43;98214.59;;;3.76;78.42
57791;BME280;43621;51.798;21.588;2023-01-16T16:28:46;98206.02;;;3.75;78.36
57791;BME280;43621;51.798;21.588;2023-01-16T16:32:50;98197.61;;;3.76;78.48
57791;BME280;43621;51.798;21.588;2023-01-16T16:37:03;98191.36;;;3.78;78.52
57791;BME280;43621;51.798;21.588;2023-01-16T16:45:12;98171.05;;;3.76;78.58
57791;BME280;43621;51.798;21.588;2023-01-16T16:53:25;98164.36;;;3.77;78.71
57791;BME280;43621;51.798;21.588;2023-01-16T16:57:41;98154.33;;;3.76;78.64
57791;BME280;43621;51.798;21.588;2023-01-16T17:01:47;98140.35;;;3.78;78.70
57791;BME280;43621;51.798;21.588;2023-01-16T17:05:51;98135.85;;;3.72;78.72
57791;BME280;43621;51.798;21.588;2023-01-16T17:09:53;98126.48;;;3.70;78.75
57791;BME280;43621;51.798;21.588;2023-01-16T17:13:55;98119.64;;;3.69;78.70
57791;BME280;43621;51.798;21.588;2023-01-16T17:17:57;98113.55;;;3.69;78.66
57791;BME280;43621;51.798;21.588;2023-01-16T17:21:59;98108.80;;;3.72;78.68
57791;BME280;43621;51.798;21.588;2023-01-16T17:26:01;98101.04;;;3.72;78.65
57791;BME280;43621;51.798;21.588;2023-01-16T17:30:03;98100.67;;;3.69;78.73
57791;BME280;43621;51.798;21.588;2023-01-16T17:34:05;98092.31;;;3.68;78.65
57791;BME280;43621;51.798;21.588;2023-01-16T17:38:27;98084.35;;;3.68;78.72
57791;BME280;43621;51.798;21.588;2023-01-16T17:42:29;98073.98;;;3.72;78.69
57791;BME280;43621;51.798;21.588;2023-01-16T17:46:50;98061.77;;;3.71;78.69
57791;BME280;43621;51.798;21.588;2023-01-16T17:50:52;98048.85;;;3.69;78.82
57791;BME280;43621;51.798;21.588;2023-01-16T17:54:54;98039.68;;;3.71;78.86
57791;BME280;43621;51.798;21.588;2023-01-16T17:59:15;98030.41;;;3.74;78.85
57791;BME280;43621;51.798;21.588;2023-01-16T18:03:16;98018.13;;;3.76;78.85
57791;BME280;43621;51.798;21.588;2023-01-16T18:07:19;98008.48;;;3.75;78.96
57791;BME280;43621;51.798;21.588;2023-01-16T18:11:22;98001.96;;;3.72;78.98
57791;BME280;43621;51.798;21.588;2023-01-16T18:15:43;97993.25;;;3.73;79.19
57791;BME280;43621;51.798;21.588;2023-01-16T18:20:05;97987.06;;;3.78;79.11
57791;BME280;43621;51.798;21.588;2023-01-16T18:24:07;97981.12;;;3.83;78.99
57791;BME280;43621;51.798;21.588;2023-01-16T18:28:09;97974.09;;;3.86;79.03
57791;BME280;43621;51.798;21.588;2023-01-16T18:32:12;97969.52;;;3.88;79.03
57791;BME280;43621;51.798;21.588;2023-01-16T18:36:27;97971.65;;;3.88;79.10
57791;BME280;43621;51.798;21.588;2023-01-16T18:40:29;97968.21;;;3.87;79.22
57791;BME280;43621;51.798;21.588;2023-01-16T18:44:49;97964.06;;;3.90;79.21
57791;BME280;43621;51.798;21.588;2023-01-16T18:49:10;97957.55;;;3.93;79.18
57791;BME280;43621;51.798;21.588;2023-01-16T18:53:40;97948.73;;;3.95;79.15
57791;BME280;43621;51.798;21.588;2023-01-16T18:58:01;97937.80;;;3.95;79.12
57791;BME280;43621;51.798;21.588;2023-01-16T19:02:30;97935.01;;;3.94;79.25
57791;BME280;43621;51.798;21.588;2023-01-16T19:06:34;97931.49;;;3.96;79.16
57791;BME280;43621;51.798;21.588;2023-01-16T19:10:38;97922.91;;;3.99;79.17
57791;BME280;43621;51.798;21.588;2023-01-16T19:14:41;97915.58;;;4.00;79.06
57791;BME280;43621;51.798;21.588;2023-01-16T19:18:44;97905.78;;;3.98;79.22
57791;BME280;43621;51.798;21.588;2023-01-16T19:22:46;97897.20;;;3.97;79.24
57791;BME280;43621;51.798;21.588;2023-01-16T19:26:47;97884.35;;;3.98;79.22
57791;BME280;43621;51.798;21.588;2023-01-16T19:30:49;97872.37;;;3.97;79.25
57791;BME280;43621;51.798;21.588;2023-01-16T19:34:51;97860.91;;;3.96;79.42
57791;BME280;43621;51.798;21.588;2023-01-16T19:38:53;97854.08;;;3.95;79.29
57791;BME280;43621;51.798;21.588;2023-01-16T19:42:58;97843.67;;;3.94;79.37
57791;BME280;43621;51.798;21.588;2023-01-16T19:47:18;97837.10;;;3.94;79.38
57791;BME280;43621;51.798;21.588;2023-01-16T19:51:22;97825.30;;;3.91;79.46
57791;BME280;43621;51.798;21.588;2023-01-16T19:55:24;97816.39;;;3.87;79.46
57791;BME280;43621;51.798;21.588;2023-01-16T19:59:26;97817.58;;;3.87;79.51
57791;BME280;43621;51.798;21.588;2023-01-16T20:03:28;97808.52;;;3.88;79.52
57791;BME280;43621;51.798;21.588;2023-01-16T20:07:30;97798.69;;;3.90;79.50
57791;BME280;43621;51.798;21.588;2023-01-16T20:11:31;97791.21;;;3.89;79.54
57791;BME280;43621;51.798;21.588;2023-01-16T20:15:52;97788.70;;;3.82;79.70
57791;BME280;43621;51.798;21.588;2023-01-16T20:19:54;97783.23;;;3.82;79.72
57791;BME280;43621;51.798;21.588;2023-01-16T20:23:56;97781.95;;;3.84;79.80
57791;BME280;43621;51.798;21.588;2023-01-16T20:27:58;97769.16;;;3.86;79.66
57791;BME280;43621;51.798;21.588;2023-01-16T20:32:00;97758.35;;;3.87;79.66
57791;BME280;43621;51.798;21.588;2023-01-16T20:36:05;97748.06;;;3.90;79.62
57791;BME280;43621;51.798;21.588;2023-01-16T20:40:08;97735.61;;;3.93;79.66
57791;BME280;43621;51.798;21.588;2023-01-16T20:44:21;97727.48;;;3.93;79.67
57791;BME280;43621;51.798;21.588;2023-01-16T20:48:41;97716.95;;;3.91;79.64
57791;BME280;43621;51.798;21.588;2023-01-16T20:52:43;97711.17;;;3.90;79.65
57791;BME280;43621;51.798;21.588;2023-01-16T20:56:45;97701.47;;;3.88;79.61
57791;BME280;43621;51.798;21.588;2023-01-16T21:00:47;97699.01;;;3.87;79.70
57791;BME280;43621;51.798;21.588;2023-01-16T21:04:49;97692.41;;;3.82;79.80
57791;BME280;43621;51.798;21.588;2023-01-16T21:08:53;97683.40;;;3.79;79.86
57791;BME280;43621;51.798;21.588;2023-01-16T21:12:56;97676.96;;;3.78;79.98
57791;BME280;43621;51.798;21.588;2023-01-16T21:17:17;97668.30;;;3.77;80.00
57791;BME280;43621;51.798;21.588;2023-01-16T21:21:38;97669.23;;;3.76;80.02
57791;BME280;43621;51.798;21.588;2023-01-16T21:25:56;97656.23;;;3.75;80.25
57791;BME280;43621;51.798;21.588;2023-01-16T21:30:00;97654.48;;;3.75;80.22
57791;BME280;43621;51.798;21.588;2023-01-16T21:34:04;97645.69;;;3.77;80.29
57791;BME280;43621;51.798;21.588;2023-01-16T21:38:07;97644.59;;;3.77;80.23
57791;BME280;43621;51.798;21.588;2023-01-16T21:42:11;97643.16;;;3.76;80.39
57791;BME280;43621;51.798;21.588;2023-01-16T21:46:32;97638.23;;;3.72;80.62
57791;BME280;43621;51.798;21.588;2023-01-16T21:50:36;97635.45;;;3.71;80.43
57791;BME280;43621;51.798;21.588;2023-01-16T21:54:42;97629.19;;;3.71;80.46
57791;BME280;43621;51.798;21.588;2023-01-16T21:58:43;97622.08;;;3.72;80.50
57791;BME280;43621;51.798;21.588;2023-01-16T22:02:45;97613.80;;;3.73;80.56
57791;BME280;43621;51.798;21.588;2023-01-16T22:06:48;97612.26;;;3.75;80.44
57791;BME280;43621;51.798;21.588;2023-01-16T22:10:51;97607.25;;;3.75;80.53
57791;BME280;43621;51.798;21.588;2023-01-16T22:15:12;97599.06;;;3.76;80.56
57791;BME280;43621;51.798;21.588;2023-01-16T22:19:32;97591.20;;;3.77;80.58
57791;BME280;43621;51.798;21.588;2023-01-16T22:23:48;97579.04;;;3.76;80.65
57791;BME280;43621;51.798;21.588;2023-01-16T22:27:55;97577.45;;;3.76;80.63
57791;BME280;43621;51.798;21.588;2023-01-16T22:31:58;97573.57;;;3.73;80.77
57791;BME280;43621;51.798;21.588;2023-01-16T22:36:04;97571.80;;;3.69;81.08
57791;BME280;43621;51.798;21.588;2023-01-16T22:40:10;97561.77;;;3.68;80.97
57791;BME280;43621;51.798;21.588;2023-01-16T22:44:12;97554.07;;;3.67;80.96
57791;BME280;43621;51.798;21.588;2023-01-16T22:48:33;97550.83;;;3.65;81.10
57791;BME280;43621;51.798;21.588;2023-01-16T22:52:36;97548.04;;;3.65;81.13
57791;BME280;43621;51.798;21.588;2023-01-16T22:56:38;97541.90;;;3.66;81.08
57791;BME280;43621;51.798;21.588;2023-01-16T23:00:43;97535.48;;;3.68;81.03
57791;BME280;43621;51.798;21.588;2023-01-16T23:04:45;97528.67;;;3.69;81.02
57791;BME280;43621;51.798;21.588;2023-01-16T23:08:47;97518.59;;;3.70;81.07
57791;BME280;43621;51.798;21.588;2023-01-16T23:12:49;97516.06;;;3.71;81.20
57791;BME280;43621;51.798;21.588;2023-01-16T23:16:53;97508.05;;;3.71;81.03
57791;BME280;43621;51.798;21.588;2023-01-16T23:20:57;97505.27;;;3.73;81.01
57791;BME280;43621;51.798;21.588;2023-01-16T23:24:59;97505.92;;;3.77;80.87
57791;BME280;43621;51.798;21.588;2023-01-16T23:29:01;97505.64;;;3.78;80.81
57791;BME280;43621;51.798;21.588;2023-01-16T23:33:06;97501.85;;;3.76;80.99
57791;BME280;43621;51.798;21.588;2023-01-16T23:37:10;97500.43;;;3.75;81.08
57791;BME280;43621;51.798;21.588;2023-01-16T23:41:13;97495.50;;;3.74;81.00
57791;BME280;43621;51.798;21.588;2023-01-16T23:45:16;97484.98;;;3.74;80.92
57791;BME280;43621;51.798;21.588;2023-01-16T23:49:18;97480.40;;;3.75;81.00
57791;BME280;43621;51.798;21.588;2023-01-16T23:53:20;97481.30;;;3.75;81.09
57791;BME280;43621;51.798;21.588;2023-01-16T23:57:24;97472.73;;;3.76;80.93
